Time;durP1;ratioP1;P1;durP2;ratioP2;P2;SDS_P1;SDS_P2;PMS_P1;PMS_P2;Temp;Humidity;BMP_temperature;BMP_pressure;BME280_temperature;BME280_humidity;BME280_pressure;Samples;Min_cycle;Max_cycle;Signal;HPM_P1;HPM_P2
2023/02/23 00:01:20;;;;;;;37.88;21.58;;;;;;;11.55;65.13;99951.97;12720345;23;20414;-59
2023/02/23 00:06:23;;;;;;;41.47;21.45;;;;;;;11.60;65.22;99958.44;12721365;23;20017;-60
2023/02/23 00:11:26;;;;;;;42.42;21.50;;;;;;;11.70;64.55;99961.63;12721188;23;20092;-60
2023/02/23 00:16:27;;;;;;;43.30;22.02;;;;;;;11.73;65.13;99960.44;12721225;23;20041;-60
2023/02/23 00:21:31;;;;;;;41.58;20.85;;;;;;;11.70;65.02;99950.88;12694630;23;20021;-59
2023/02/23 00:26:34;;;;;;;39.97;20.92;;;;;;;11.78;65.16;99954.47;12720534;23;20029;-61
2023/02/23 00:31:37;;;;;;;40.83;21.98;;;;;;;11.80;65.30;99964.00;12721606;23;20032;-61
2023/02/23 00:36:39;;;;;;;38.35;21.88;;;;;;;11.74;64.91;99948.63;12717994;23;20365;-60
2023/02/23 00:41:41;;;;;;;36.53;20.42;;;;;;;11.75;65.30;99954.84;12720845;23;20048;-62
2023/02/23 00:46:44;;;;;;;38.95;21.38;;;;;;;11.77;65.12;99955.47;12720401;23;20029;-62
2023/02/23 00:51:45;;;;;;;36.30;18.77;;;;;;;11.88;64.86;99953.09;12720254;23;20489;-60
2023/02/23 00:56:47;;;;;;;37.22;20.23;;;;;;;11.93;65.05;99957.09;12719546;23;20056;-60
2023/02/23 01:01:48;;;;;;;35.17;20.70;;;;;;;11.97;64.62;99958.41;12720060;23;20021;-60
2023/02/23 01:06:50;;;;;;;35.45;18.75;;;;;;;12.04;64.56;99960.09;12720040;23;20330;-59
2023/02/23 01:11:51;;;;;;;35.08;20.75;;;;;;;12.08;64.49;99972.16;12721343;23;20009;-61
2023/02/23 01:16:53;;;;;;;38.00;20.70;;;;;;;12.09;64.68;99962.22;12720608;23;20017;-61
2023/02/23 01:21:54;;;;;;;38.53;21.70;;;;;;;12.12;64.45;99960.97;12720184;23;20084;-60
2023/02/23 01:26:56;;;;;;;37.45;19.75;;;;;;;12.13;64.22;99963.50;12719083;23;20354;-60
2023/02/23 01:31:57;;;;;;;39.67;20.27;;;;;;;12.14;64.24;99965.13;12721479;23;20354;-58
2023/02/23 01:36:59;;;;;;;39.13;21.05;;;;;;;12.17;63.98;99953.97;12718001;23;20025;-59
2023/02/23 01:42:00;;;;;;;35.70;21.08;;;;;;;12.16;64.26;99952.31;12719886;23;20028;-59
2023/02/23 01:47:02;;;;;;;35.72;20.50;;;;;;;12.16;64.32;99954.16;12720015;23;20574;-58
2023/02/23 01:52:10;;;;;;;35.92;20.58;;;;;;;12.15;64.20;99961.44;12720461;23;20032;-62
2023/02/23 01:57:13;;;;;;;41.58;21.65;;;;;;;12.12;64.39;99960.97;12719363;23;20025;-60
2023/02/23 02:02:21;;;;;;;37.72;21.55;;;;;;;12.03;64.57;99957.63;12721292;23;20028;-58
2023/02/23 02:07:27;;;;;;;35.75;20.77;;;;;;;11.93;64.94;99946.31;12719766;23;20052;-59
2023/02/23 02:12:29;;;;;;;43.95;22.45;;;;;;;11.77;65.79;99942.88;12723261;23;20013;-59
2023/02/23 02:18:02;;;;;;;36.78;21.10;;;;;;;11.53;66.61;99949.47;12722809;23;20449;-59
2023/02/23 02:23:31;;;;;;;43.28;24.45;;;;;;;11.30;66.94;99953.16;12723879;23;20097;-58
2023/02/23 02:28:53;;;;;;;41.45;24.50;;;;;;;11.24;67.45;99945.03;12719797;23;20076;-59
2023/02/23 02:34:28;;;;;;;48.10;24.25;;;;;;;11.07;67.97;99945.25;12719812;23;20025;-58
2023/02/23 02:39:52;;;;;;;49.60;25.40;;;;;;;11.08;68.58;99943.41;12722853;23;20014;-57
2023/02/23 02:45:11;;;;;;;50.03;26.50;;;;;;;11.06;68.40;99935.53;12719219;23;20021;-59
2023/02/23 02:50:29;;;;;;;51.20;28.00;;;;;;;11.11;68.90;99933.09;12720627;23;20032;-57
2023/02/23 02:55:34;;;;;;;51.83;26.58;;;;;;;11.07;68.95;99933.66;12720182;23;20076;-57
2023/02/23 04:22:30;;;;;;;70.30;34.22;;;;;;;11.06;72.78;99938.22;12718551;23;20369;-58
2023/02/23 04:27:32;;;;;;;66.40;32.25;;;;;;;11.10;72.86;99942.19;12717288;23;20017;-58
2023/02/23 04:32:33;;;;;;;73.00;33.35;;;;;;;11.15;72.95;99951.53;12717910;23;20025;-59
2023/02/23 04:37:34;;;;;;;77.53;33.53;;;;;;;11.17;72.74;99944.94;12716258;23;20033;-59
2023/02/23 04:42:38;;;;;;;77.68;33.63;;;;;;;11.21;73.20;99948.09;12716870;23;20507;-59
2023/02/23 04:47:40;;;;;;;74.22;32.70;;;;;;;11.22;73.07;99944.41;12716214;23;20032;-57
2023/02/23 04:52:42;;;;;;;88.30;35.45;;;;;;;11.20;73.38;99944.59;12717234;23;20061;-58
2023/02/23 04:57:43;;;;;;;131.38;42.53;;;;;;;11.21;73.45;99950.78;12716145;23;20032;-59
2023/02/23 05:02:44;;;;;;;114.50;41.15;;;;;;;11.23;73.58;99951.44;12716429;23;20029;-58
2023/02/23 05:07:46;;;;;;;77.95;35.17;;;;;;;11.25;73.86;99946.69;12716238;23;20025;-57
2023/02/23 05:12:47;;;;;;;77.47;35.22;;;;;;;11.29;73.98;99951.53;12716398;23;20075;-57
2023/02/23 05:17:49;;;;;;;73.82;33.80;;;;;;;11.28;74.35;99951.69;12714375;23;20307;-59
2023/02/23 05:22:50;;;;;;;65.03;30.77;;;;;;;11.31;73.92;99941.41;12715830;23;20022;-57
2023/02/23 05:27:51;;;;;;;70.05;32.58;;;;;;;11.32;73.95;99953.81;12713475;23;20033;-58
2023/02/23 05:32:53;;;;;;;74.07;32.85;;;;;;;11.32;74.13;99953.00;12713076;23;20024;-57
2023/02/23 05:37:54;;;;;;;72.45;31.98;;;;;;;11.35;73.99;99954.44;12710763;23;20017;-57
2023/02/23 05:42:59;;;;;;;83.55;34.80;;;;;;;11.30;74.33;99953.16;12712287;23;20028;-60
2023/02/23 05:48:00;;;;;;;78.82;33.10;;;;;;;11.29;74.20;99956.91;12712763;23;20096;-58
2023/02/23 05:53:03;;;;;;;78.07;34.25;;;;;;;11.23;74.62;99960.31;12725224;23;20029;-59
2023/02/23 05:58:05;;;;;;;78.40;35.35;;;;;;;11.27;74.35;99958.09;12715065;23;20353;-59
2023/02/23 06:03:06;;;;;;;76.32;33.97;;;;;;;11.30;74.45;99960.41;12717357;23;20017;-61
2023/02/23 06:08:08;;;;;;;75.35;34.80;;;;;;;11.32;74.57;99955.69;12718309;23;20052;-58
2023/02/23 06:13:09;;;;;;;84.03;35.97;;;;;;;11.31;74.63;99956.69;12717085;23;20535;-58
2023/02/23 06:18:11;;;;;;;76.85;35.10;;;;;;;11.27;75.30;99958.09;12715810;23;20487;-60
2023/02/23 06:23:14;;;;;;;90.47;35.42;;;;;;;11.29;75.25;99964.97;12722621;23;20021;-61
2023/02/23 06:28:15;;;;;;;91.35;37.60;;;;;;;11.32;74.78;99964.56;12720077;23;20028;-58
2023/02/23 06:33:17;;;;;;;89.60;36.15;;;;;;;11.37;74.77;99971.25;12719591;23;20029;-60
2023/02/23 06:38:19;;;;;;;96.40;38.35;;;;;;;11.37;74.79;99973.94;12730898;23;20026;-58
2023/02/23 06:43:20;;;;;;;91.13;37.03;;;;;;;11.43;74.95;99970.47;12723432;23;20316;-58
2023/02/23 06:48:23;;;;;;;90.72;37.95;;;;;;;11.42;75.24;99972.34;12726167;23;20025;-59
2023/02/23 06:53:25;;;;;;;98.88;38.72;;;;;;;11.49;75.47;99983.16;12724275;23;20026;-59
2023/02/23 06:58:27;;;;;;;92.68;37.63;;;;;;;11.52;75.19;99990.88;12697445;23;20409;-58
2023/02/23 07:03:28;;;;;;;101.30;38.63;;;;;;;11.46;75.44;99994.34;12723287;23;20013;-58
2023/02/23 07:08:30;;;;;;;82.90;36.55;;;;;;;11.50;75.37;99995.63;12724815;23;20024;-59
2023/02/23 07:13:32;;;;;;;88.40;39.10;;;;;;;11.52;75.35;100001.63;12724769;23;20022;-58
2023/02/23 07:18:33;;;;;;;97.82;39.85;;;;;;;11.56;75.90;99999.41;12721678;23;20017;-59
2023/02/23 07:23:34;;;;;;;104.10;40.83;;;;;;;11.58;75.81;100008.94;12726156;23;20025;-61
2023/02/23 07:28:37;;;;;;;98.35;41.05;;;;;;;11.61;75.59;100011.28;12726261;23;20030;-60
2023/02/23 07:33:38;;;;;;;97.82;39.33;;;;;;;11.66;75.65;100008.00;12727395;23;20488;-58
2023/02/23 07:38:39;;;;;;;103.43;41.83;;;;;;;11.74;75.54;100015.13;12726190;23;20032;-58
2023/02/23 07:43:41;;;;;;;97.18;40.72;;;;;;;11.71;76.16;100011.78;12727369;23;20026;-56
2023/02/23 07:48:43;;;;;;;100.03;39.88;;;;;;;11.74;75.98;100007.88;12722112;23;20036;-60
2023/02/23 07:53:45;;;;;;;112.78;42.70;;;;;;;11.82;75.85;100009.59;12720071;23;20033;-60
2023/02/23 07:58:46;;;;;;;109.85;40.10;;;;;;;11.83;75.89;100013.97;12720880;23;20067;-59
2023/02/23 08:03:49;;;;;;;103.82;39.35;;;;;;;11.89;75.65;100019.44;12717705;23;20025;-59
2023/02/23 08:08:50;;;;;;;103.75;40.75;;;;;;;12.06;76.06;100016.47;12728841;23;20028;-59
2023/02/23 08:13:52;;;;;;;97.40;39.83;;;;;;;12.12;76.29;100023.78;12733158;23;20029;-58
2023/02/23 08:18:57;;;;;;;89.18;35.92;;;;;;;12.10;75.85;100029.38;12730642;23;20079;-64
2023/02/23 08:23:59;;;;;;;89.90;36.78;;;;;;;12.10;76.06;100029.38;12731013;23;20025;-59
2023/02/23 08:29:00;;;;;;;87.63;36.78;;;;;;;12.15;75.87;100027.97;12734565;23;20025;-62
2023/02/23 08:34:02;;;;;;;82.70;36.38;;;;;;;12.23;76.44;100030.53;12702714;23;20088;-60
2023/02/23 08:39:06;;;;;;;83.35;36.63;;;;;;;12.32;75.75;100042.81;12726156;23;20013;-61
2023/02/23 08:44:07;;;;;;;82.43;36.15;;;;;;;12.35;75.65;100039.72;12726698;23;20620;-60
2023/02/23 08:49:09;;;;;;;94.82;38.97;;;;;;;12.42;76.14;100037.06;12728126;23;20021;-59
2023/02/23 08:54:13;;;;;;;77.38;35.05;;;;;;;12.48;75.99;100039.84;12732334;23;20021;-59
2023/02/23 08:59:15;;;;;;;72.22;33.33;;;;;;;12.45;76.16;100037.53;12735234;23;20032;-61
2023/02/23 09:04:17;;;;;;;71.22;31.02;;;;;;;12.48;76.13;100042.53;12733915;23;20821;-62
2023/02/23 09:09:18;;;;;;;60.45;29.23;;;;;;;12.50;76.35;100048.56;12731456;23;20013;-60
2023/02/23 09:14:20;;;;;;;63.35;29.20;;;;;;;12.57;75.88;100037.00;12730878;23;20026;-62
2023/02/23 09:19:21;;;;;;;63.58;29.00;;;;;;;12.75;76.14;100041.88;12732177;23;20029;-61
2023/02/23 09:24:22;;;;;;;63.83;29.38;;;;;;;12.88;75.56;100042.78;12733714;23;20024;-61
2023/02/23 09:29:23;;;;;;;65.47;30.33;;;;;;;13.03;75.32;100045.38;12733072;23;20060;-59
2023/02/23 09:34:28;;;;;;;62.53;30.88;;;;;;;13.12;75.54;100051.44;12730358;23;20025;-59
2023/02/23 09:39:29;;;;;;;65.00;29.45;;;;;;;13.06;75.38;100057.63;12732954;23;20017;-61
2023/02/23 09:44:48;;;;;;;63.92;28.33;;;;;;;12.99;75.22;100060.28;12737236;23;20112;-59
2023/02/23 09:49:50;;;;;;;62.60;29.85;;;;;;;12.93;75.54;100066.47;12734618;23;20025;-63
2023/02/23 09:54:52;;;;;;;65.85;29.10;;;;;;;12.85;75.78;100056.66;12733057;23;20409;-59
2023/02/23 09:59:53;;;;;;;57.13;28.85;;;;;;;13.00;75.37;100063.81;12730445;23;20025;-61
2023/02/23 10:05:01;;;;;;;59.90;27.23;;;;;;;13.14;74.88;100054.75;12729539;23;20052;-62
2023/02/23 10:10:03;;;;;;;55.75;28.45;;;;;;;13.38;74.91;100061.53;12731135;23;20105;-62
2023/02/23 10:15:22;;;;;;;48.78;25.45;;;;;;;13.44;74.43;100065.31;12741389;23;20021;-61
2023/02/23 10:20:33;;;;;;;44.50;24.52;;;;;;;13.54;74.48;100065.75;12745065;23;20029;-60
2023/02/23 10:25:40;;;;;;;41.65;21.65;;;;;;;13.66;74.33;100064.16;12746970;23;20262;-64
2023/02/23 10:30:43;;;;;;;47.92;25.83;;;;;;;13.70;74.36;100067.25;12744235;23;20241;-59
2023/02/23 10:35:44;;;;;;;46.17;25.05;;;;;;;13.90;74.21;100061.91;12747584;23;20030;-61
2023/02/23 10:40:54;;;;;;;46.35;22.80;;;;;;;13.87;74.12;100071.25;12746660;23;20654;-61
2023/02/23 10:45:56;;;;;;;44.63;23.55;;;;;;;13.89;74.10;100066.47;12747295;23;20022;-59
2023/02/23 10:51:01;;;;;;;46.95;25.08;;;;;;;13.91;73.95;100073.56;12746433;23;20025;-62
2023/02/23 10:56:15;;;;;;;46.17;25.08;;;;;;;14.07;73.75;100075.88;12722864;23;20079;-62
2023/02/23 11:01:52;;;;;;;42.97;23.20;;;;;;;14.02;73.74;100076.50;12748861;23;20052;-63
2023/02/23 11:07:16;;;;;;;38.50;21.40;;;;;;;14.05;73.14;100065.25;12581833;23;20341;-62
2023/02/23 11:12:42;;;;;;;33.92;19.20;;;;;;;14.18;72.71;100064.44;12754325;23;20029;-62
2023/02/23 11:17:44;;;;;;;30.30;16.88;;;;;;;14.04;73.22;100069.00;12750346;23;20017;-62
2023/02/23 11:22:46;;;;;;;31.15;17.33;;;;;;;14.15;72.70;100069.44;12756708;23;20029;-63
2023/02/23 11:27:50;;;;;;;35.28;18.55;;;;;;;14.31;72.34;100062.78;12754743;23;20018;-62
2023/02/23 11:32:58;;;;;;;28.27;16.20;;;;;;;14.38;72.08;100067.16;12759572;23;20013;-63
2023/02/23 11:38:14;;;;;;;25.15;14.85;;;;;;;14.38;72.10;100058.22;12757386;23;20024;-62
2023/02/23 11:43:15;;;;;;;27.90;16.52;;;;;;;14.48;71.92;100056.75;12762024;23;20022;-64
2023/02/23 11:48:33;;;;;;;35.03;19.63;;;;;;;14.70;71.37;100047.63;12763909;23;20014;-63
2023/02/23 11:53:36;;;;;;;;;;;;;;;14.84;71.94;100044.66;12732571;23;20025;-63
2023/02/23 11:59:07;;;;;;;29.52;16.83;;;;;;;14.76;71.48;100044.06;12757914;23;19916;-65
2023/02/23 12:04:22;;;;;;;30.73;17.27;;;;;;;14.71;71.50;100042.00;12756589;23;20025;-63
2023/02/23 12:09:31;;;;;;;24.80;13.73;;;;;;;14.65;71.03;100040.97;12762397;23;20416;-65
2023/02/23 12:14:41;;;;;;;21.45;11.18;;;;;;;14.71;70.61;100024.91;12736284;23;20036;-64
2023/02/23 12:19:50;;;;;;;20.95;12.40;;;;;;;14.78;70.20;100023.84;12764468;23;20034;-65
2023/02/23 12:25:01;;;;;;;21.67;12.50;;;;;;;14.71;69.99;100028.47;12751885;23;20029;-66
2023/02/23 12:30:09;;;;;;;21.83;12.60;;;;;;;14.68;69.80;100023.47;12759335;23;20021;-66
2023/02/23 12:35:20;;;;;;;19.27;12.07;;;;;;;14.65;69.77;100023.88;12763961;23;20080;-66
2023/02/23 12:40:29;;;;;;;19.80;11.73;;;;;;;14.60;69.58;100019.09;12776677;23;20089;-64
2023/02/23 12:45:49;;;;;;;18.75;11.20;;;;;;;14.49;69.62;100025.13;12776128;23;20012;-64
2023/02/23 12:50:53;;;;;;;19.15;10.80;;;;;;;14.40;69.36;100021.81;12774577;23;19997;-62
2023/02/23 12:56:10;;;;;;;20.27;12.18;;;;;;;14.16;69.75;100027.81;12781289;23;20033;-62
2023/02/23 13:01:35;;;;;;;16.95;8.52;;;;;;;13.91;70.20;100028.44;12767712;23;20044;-61
2023/02/23 13:06:51;;;;;;;12.57;6.05;;;;;;;13.87;69.53;100019.91;12765140;23;20017;-62
2023/02/23 13:12:12;;;;;;;10.60;5.25;;;;;;;13.87;69.32;100022.63;12742970;23;20005;-64
2023/02/23 13:17:24;;;;;;;7.28;4.22;;;;;;;13.93;68.55;100023.66;12780908;23;20026;-64
2023/02/23 13:22:39;;;;;;;8.05;4.28;;;;;;;13.85;68.55;100021.16;12775264;23;20036;-65
2023/02/23 13:27:49;;;;;;;9.80;5.68;;;;;;;13.75;68.11;100015.34;12737952;23;20077;-63
2023/02/23 13:32:51;;;;;;;10.85;5.07;;;;;;;13.85;68.14;100016.59;12770646;23;20018;-66
2023/02/23 13:38:11;;;;;;;9.48;6.53;;;;;;;13.91;67.76;100011.41;12768598;23;20033;-64
2023/02/23 13:43:21;;;;;;;8.32;5.03;;;;;;;13.99;67.43;100011.19;12774187;23;20020;-64
2023/02/23 13:48:31;;;;;;;11.88;5.38;;;;;;;14.11;67.04;100012.25;12776029;23;20010;-64
2023/02/23 13:53:58;;;;;;;11.48;4.90;;;;;;;14.27;66.79;100003.69;12776056;23;20053;-65
2023/02/23 13:59:11;;;;;;;8.38;5.47;;;;;;;14.54;66.51;100008.28;12786449;23;20156;-65
2023/02/23 14:04:22;;;;;;;10.25;6.07;;;;;;;14.60;65.95;100007.47;12778137;23;20143;-65
2023/02/23 14:09:33;;;;;;;13.48;5.32;;;;;;;14.61;65.70;100015.38;12779939;23;20033;-66
2023/02/23 14:14:35;;;;;;;10.50;5.60;;;;;;;14.71;65.35;100017.66;12781885;23;20064;-66
2023/02/23 14:20:00;;;;;;;11.27;6.65;;;;;;;14.78;64.74;100010.31;12780244;23;20056;-65
2023/02/23 14:25:33;;;;;;;8.90;5.75;;;;;;;14.78;64.50;100004.91;12781465;23;20024;-65
2023/02/23 14:30:49;;;;;;;12.90;6.15;;;;;;;14.79;64.36;100008.44;12779974;23;20069;-66
2023/02/23 14:35:53;;;;;;;12.15;6.20;;;;;;;14.92;64.15;100015.72;12778934;23;20105;-66
2023/02/23 14:40:54;;;;;;;12.82;6.35;;;;;;;14.66;64.14;100012.84;12778953;23;20013;-66
2023/02/23 14:45:57;;;;;;;13.85;7.28;;;;;;;14.65;64.16;100013.91;12778881;23;20017;-66
2023/02/23 14:51:15;;;;;;;13.25;7.07;;;;;;;14.72;63.79;100013.88;12777930;23;20011;-66
2023/02/23 14:56:22;;;;;;;13.32;6.90;;;;;;;14.82;63.60;100008.84;12779057;23;20009;-67
2023/02/23 15:01:38;;;;;;;13.30;8.32;;;;;;;14.91;63.40;100014.03;12778508;23;20167;-68
2023/02/23 15:06:40;;;;;;;13.68;7.80;;;;;;;14.97;63.59;100016.75;12777960;23;20021;-65
2023/02/23 15:11:47;;;;;;;12.05;7.50;;;;;;;14.85;63.38;100021.16;12772551;23;20016;-65
2023/02/23 15:16:49;;;;;;;9.23;5.68;;;;;;;14.74;63.12;100028.03;12774232;23;20025;-64
2023/02/23 15:21:52;;;;;;;11.55;6.63;;;;;;;14.61;62.65;100034.31;12775600;23;20027;-67
2023/02/23 15:26:55;;;;;;;8.30;5.45;;;;;;;14.60;62.37;100029.09;12773522;23;20008;-63
2023/02/23 15:32:16;;;;;;;11.23;6.20;;;;;;;14.37;61.98;100032.22;12775969;23;20005;-65
2023/02/23 15:37:34;;;;;;;10.35;6.07;;;;;;;14.14;61.80;100038.88;12778176;23;20016;-65
2023/02/23 15:42:38;;;;;;;10.93;7.03;;;;;;;14.31;62.10;100033.03;12779262;23;20001;-64
2023/02/23 15:47:39;;;;;;;10.45;6.53;;;;;;;14.20;62.30;100027.22;12778983;23;20013;-64
2023/02/23 15:52:49;;;;;;;10.77;6.93;;;;;;;14.16;62.16;100030.53;12780658;23;20287;-64
2023/02/23 15:57:57;;;;;;;11.38;6.43;;;;;;;14.16;61.93;100033.22;12782036;23;20033;-64
2023/02/23 16:03:01;;;;;;;12.65;7.53;;;;;;;14.05;61.88;100038.22;12779245;23;20048;-63
2023/02/23 16:08:05;;;;;;;10.43;6.18;;;;;;;14.03;61.96;100042.19;12779864;23;20041;-64
2023/02/23 16:13:11;;;;;;;11.27;6.72;;;;;;;14.01;61.54;100041.56;12779045;23;20005;-65
2023/02/23 16:18:26;;;;;;;14.05;5.82;;;;;;;13.95;61.62;100037.81;12778812;23;20048;-65
2023/02/23 16:23:31;;;;;;;15.43;7.60;;;;;;;14.02;61.64;100032.41;12780578;23;20013;-63
2023/02/23 16:28:40;;;;;;;11.82;7.00;;;;;;;14.09;61.70;100028.66;12780130;23;20002;-63
2023/02/23 16:33:49;;;;;;;13.10;7.97;;;;;;;14.10;61.92;100032.22;12753169;23;20245;-64
2023/02/23 16:38:51;;;;;;;13.68;8.13;;;;;;;14.18;61.79;100041.97;12754695;23;20049;-64
2023/02/23 16:43:56;;;;;;;13.30;6.68;;;;;;;13.99;62.08;100044.47;12780742;23;20059;-64
2023/02/23 16:49:09;;;;;;;14.38;8.13;;;;;;;13.89;62.59;100050.25;12790779;22;20032;-90
2023/02/23 16:54:13;;;;;;;12.32;7.13;;;;;;;13.86;62.31;100052.53;12785953;23;20024;-91
2023/02/23 16:59:16;;;;;;;12.48;7.10;;;;;;;13.73;62.29;100056.06;12844866;23;20123;-92
2023/02/23 17:14:51;;;;;;;15.27;7.83;;;;;;;13.71;62.46;100058.13;12729768;23;20020;-59
2023/02/23 17:19:53;;;;;;;15.38;9.15;;;;;;;13.65;62.73;100062.47;12784227;23;20572;-64
2023/02/23 17:24:54;;;;;;;15.38;8.10;;;;;;;13.61;62.69;100066.63;12781490;23;20028;-61
2023/02/23 17:29:56;;;;;;;16.23;9.63;;;;;;;13.42;63.28;100078.19;12781023;23;20025;-61
2023/02/23 17:34:57;;;;;;;21.17;10.40;;;;;;;13.49;62.62;100076.34;12778820;23;20290;-61
2023/02/23 17:39:58;;;;;;;19.27;10.40;;;;;;;13.59;62.48;100071.38;12782762;23;20453;-62
2023/02/23 17:45:05;;;;;;;18.60;11.02;;;;;;;13.55;62.55;100072.00;12787250;23;20079;-63
2023/02/23 17:50:07;;;;;;;23.80;11.93;;;;;;;13.41;63.25;100074.66;12785856;23;20025;-60
2023/02/23 17:55:09;;;;;;;19.23;11.50;;;;;;;13.23;63.25;100085.09;12786025;23;20021;-60
2023/02/23 18:00:12;;;;;;;24.23;12.10;;;;;;;13.14;63.38;100079.06;12785267;23;20048;-62
2023/02/23 18:05:14;;;;;;;21.58;12.15;;;;;;;13.00;63.94;100088.94;12786413;23;20025;-62
2023/02/23 18:10:15;;;;;;;41.65;14.13;;;;;;;13.04;63.39;100089.38;12785668;23;20050;-60
2023/02/23 18:15:19;;;;;;;26.17;12.57;;;;;;;13.16;63.40;100087.78;12786466;23;20021;-61
2023/02/23 18:20:20;;;;;;;20.42;11.48;;;;;;;13.20;63.32;100086.34;12787035;23;20585;-63
2023/02/23 18:25:25;;;;;;;23.17;12.35;;;;;;;13.25;63.21;100069.53;12786400;23;20021;-61
2023/02/23 18:30:27;;;;;;;20.25;12.05;;;;;;;13.23;63.09;100075.16;12786219;23;20067;-62
2023/02/23 18:35:37;;;;;;;21.63;12.20;;;;;;;13.29;63.05;100065.44;12785904;23;20059;-60
2023/02/23 18:40:39;;;;;;;19.60;12.00;;;;;;;13.32;62.95;100059.66;12797632;23;20059;-60
2023/02/23 18:45:42;;;;;;;27.67;13.25;;;;;;;13.30;62.98;100061.72;12804363;23;20117;-60
2023/02/23 18:50:43;;;;;;;22.33;11.98;;;;;;;13.26;63.26;100053.16;12798319;23;20029;-60
2023/02/23 18:55:46;;;;;;;23.92;13.05;;;;;;;13.23;63.38;100050.00;12796276;23;20445;-60
2023/02/23 19:00:47;;;;;;;22.35;11.73;;;;;;;13.21;63.57;100057.47;12775166;23;20060;-59
2023/02/23 19:05:52;;;;;;;27.38;14.27;;;;;;;13.22;63.29;100048.38;12817075;23;20072;-62
2023/02/23 19:10:53;;;;;;;24.27;12.52;;;;;;;13.26;63.24;100046.94;12813800;23;20029;-61
2023/02/23 19:15:54;;;;;;;20.15;11.82;;;;;;;13.21;63.20;100044.84;12814979;23;20679;-62
2023/02/23 19:20:56;;;;;;;19.02;11.60;;;;;;;13.02;64.05;100049.09;12823706;23;20013;-60
2023/02/23 19:26:01;;;;;;;20.75;10.70;;;;;;;12.87;64.13;100060.03;12791041;23;20779;-60
2023/02/23 19:31:05;;;;;;;17.92;9.45;;;;;;;12.64;64.28;100057.59;12814653;23;20020;-61
2023/02/23 19:36:08;;;;;;;19.15;9.32;;;;;;;12.47;64.42;100048.94;12815896;23;20021;-61
2023/02/23 19:41:13;;;;;;;15.35;8.70;;;;;;;12.48;64.48;100049.81;12790656;23;20082;-61
2023/02/23 19:46:16;;;;;;;18.02;10.30;;;;;;;12.70;63.67;100055.97;12815511;23;20016;-60
2023/02/23 19:51:18;;;;;;;20.30;9.60;;;;;;;12.82;63.62;100056.25;12788549;23;20029;-59
2023/02/23 19:56:21;;;;;;;20.38;10.27;;;;;;;12.92;63.24;100051.31;12788090;23;20025;-60
2023/02/23 20:01:26;;;;;;;17.45;9.45;;;;;;;12.85;63.67;100053.13;12785231;23;20016;-59
2023/02/23 20:06:30;;;;;;;20.40;10.80;;;;;;;12.84;63.50;100067.69;12812696;23;20050;-63
2023/02/23 20:11:32;;;;;;;19.35;11.15;;;;;;;12.81;63.74;100076.97;12811075;23;20025;-59
2023/02/23 20:16:34;;;;;;;17.67;10.75;;;;;;;12.74;64.01;100077.97;12815437;23;20024;-61
2023/02/23 20:21:35;;;;;;;18.45;8.63;;;;;;;12.60;64.29;100079.72;12801680;23;20051;-60
2023/02/23 20:26:37;;;;;;;16.52;9.38;;;;;;;12.65;63.99;100079.97;12814042;23;20024;-61
2023/02/23 20:31:50;;;;;;;16.92;9.35;;;;;;;12.60;63.78;100082.41;12815265;23;20029;-59
2023/02/23 20:36:53;;;;;;;18.05;9.45;;;;;;;12.43;64.42;100087.28;12785245;23;20028;-59
2023/02/23 20:41:55;;;;;;;17.17;8.32;;;;;;;12.32;64.46;100091.31;12814467;23;20025;-60
2023/02/23 20:46:56;;;;;;;16.27;9.50;;;;;;;12.13;64.34;100090.13;12820084;23;20025;-59
2023/02/23 20:51:58;;;;;;;15.40;10.13;;;;;;;12.20;64.08;100095.56;12820562;23;20020;-60
2023/02/23 20:57:06;;;;;;;19.15;9.73;;;;;;;12.19;63.98;100092.03;12818546;23;20522;-63
2023/02/23 21:02:12;;;;;;;19.05;10.43;;;;;;;12.20;64.33;100085.63;12819431;23;20036;-61
2023/02/23 21:07:13;;;;;;;22.52;10.38;;;;;;;12.25;64.28;100085.06;12817609;23;20082;-61
2023/02/23 21:12:15;;;;;;;18.92;10.55;;;;;;;12.31;64.17;100089.66;12785128;23;20025;-59
2023/02/23 21:17:16;;;;;;;25.98;13.00;;;;;;;12.34;63.91;100091.13;12788056;23;20025;-61
2023/02/23 21:22:18;;;;;;;24.60;12.85;;;;;;;12.35;63.54;100082.84;12788010;23;20029;-60
2023/02/23 21:27:19;;;;;;;27.63;13.95;;;;;;;12.16;64.37;100086.19;12787428;23;20017;-61
2023/02/23 21:32:21;;;;;;;28.02;14.13;;;;;;;12.14;64.35;100083.69;12787617;23;20040;-62
2023/02/23 21:37:23;;;;;;;32.13;14.93;;;;;;;12.02;64.64;100091.47;12787366;23;20021;-62
2023/02/23 21:42:25;;;;;;;29.90;14.45;;;;;;;12.11;64.34;100089.50;12782321;23;20044;-62
2023/02/23 21:47:26;;;;;;;30.63;14.55;;;;;;;12.16;63.88;100086.19;12782776;23;20025;-59
2023/02/23 21:52:30;;;;;;;28.95;13.10;;;;;;;12.10;64.09;100085.97;12779862;23;20056;-60
2023/02/23 21:57:32;;;;;;;28.77;13.05;;;;;;;12.14;63.82;100080.19;12780823;23;20024;-63
2023/02/23 22:02:37;;;;;;;26.17;12.90;;;;;;;12.15;63.88;100073.78;12781023;23;20400;-60
2023/02/23 22:07:38;;;;;;;27.90;14.02;;;;;;;11.98;63.65;100068.63;12778894;23;20032;-61
2023/02/23 22:12:40;;;;;;;28.98;14.30;;;;;;;12.03;63.91;100074.28;12777741;23;20469;-59
2023/02/23 22:17:42;;;;;;;26.70;13.55;;;;;;;12.07;63.16;100072.03;12779887;23;20036;-60
2023/02/23 22:22:44;;;;;;;28.90;14.57;;;;;;;12.14;62.93;100072.91;12781097;23;20037;-63
2023/02/23 22:27:45;;;;;;;28.10;13.43;;;;;;;12.15;62.98;100074.59;12777883;23;20021;-60
2023/02/23 22:32:47;;;;;;;27.02;14.00;;;;;;;12.01;62.81;100067.44;12782252;23;20039;-60
2023/02/23 22:37:49;;;;;;;26.60;12.88;;;;;;;12.00;63.17;100071.97;12783461;23;20025;-62
2023/02/23 22:42:50;;;;;;;29.23;13.77;;;;;;;11.96;63.19;100075.22;12784003;23;20054;-59
2023/02/23 22:47:51;;;;;;;25.73;12.40;;;;;;;11.87;63.28;100079.91;12790320;23;20017;-59
2023/02/23 22:52:53;;;;;;;23.58;10.13;;;;;;;11.55;63.89;100082.00;12812108;23;20029;-63
2023/02/23 22:57:55;;;;;;;27.92;12.30;;;;;;;11.61;63.67;100067.81;12796341;23;20021;-61
2023/02/23 23:02:56;;;;;;;31.83;12.77;;;;;;;11.69;63.19;100067.69;12800544;23;20013;-61
2023/02/23 23:07:58;;;;;;;23.95;12.38;;;;;;;11.58;63.30;100060.09;12809976;23;20033;-61
2023/02/23 23:13:01;;;;;;;27.45;13.52;;;;;;;11.52;63.51;100058.16;12804814;23;20024;-60
2023/02/23 23:18:12;;;;;;;30.50;13.30;;;;;;;11.69;63.22;100053.41;12815576;23;20024;-61
2023/02/23 23:23:16;;;;;;;28.80;13.10;;;;;;;11.79;62.71;100048.53;12817229;23;20020;-61
2023/02/23 23:28:18;;;;;;;32.13;13.70;;;;;;;11.86;63.07;100059.34;12808546;23;20091;-63
2023/02/23 23:33:19;;;;;;;28.45;12.50;;;;;;;11.87;62.55;100055.66;12813647;23;20452;-60
2023/02/23 23:38:21;;;;;;;26.55;11.48;;;;;;;11.89;62.73;100041.00;12806805;23;20029;-63
2023/02/23 23:43:24;;;;;;;30.70;12.90;;;;;;;11.94;62.95;100044.97;12780028;23;20017;-59
2023/02/23 23:48:25;;;;;;;29.95;13.45;;;;;;;11.89;63.11;100043.69;12782701;23;20044;-60
2023/02/23 23:53:26;;;;;;;30.38;12.23;;;;;;;11.88;62.75;100035.75;12784725;23;20025;-61
2023/02/23 23:58:28;;;;;;;32.75;12.20;;;;;;;11.83;63.04;100025.56;12782180;23;20028;-61
